createdAt,value
2023-02-11T00:02:35.000Z,99774.23
2023-02-11T00:12:35.000Z,99772.54
2023-02-11T00:17:34.000Z,99773.49
2023-02-11T00:22:35.000Z,99769.23
2023-02-11T00:27:34.000Z,99769.97
2023-02-11T00:32:35.000Z,99770.95
2023-02-11T00:37:35.000Z,99772.26
2023-02-11T00:42:35.000Z,99775.77
2023-02-11T00:47:35.000Z,99777.58
2023-02-11T00:52:35.000Z,99775.75
2023-02-11T00:57:35.000Z,99776.74
2023-02-11T01:02:34.000Z,99780.04
2023-02-11T01:07:35.000Z,99780.04
2023-02-11T01:12:35.000Z,99785.05
2023-02-11T01:17:35.000Z,99791.34
2023-02-11T01:22:34.000Z,99799.14
2023-02-11T01:27:35.000Z,99809.03
2023-02-11T01:32:35.000Z,99811.53
2023-02-11T01:37:35.000Z,99809.26
2023-02-11T01:42:34.000Z,99811.14
2023-02-11T01:47:35.000Z,99812.52
2023-02-11T01:52:34.000Z,99816.89
2023-02-11T01:57:35.000Z,99820.93
2023-02-11T02:02:35.000Z,99820.78
2023-02-11T02:07:35.000Z,99813.8
2023-02-11T02:12:34.000Z,99817.46
2023-02-11T02:17:35.000Z,99817.46
2023-02-11T02:22:35.000Z,99818.5
2023-02-11T02:27:35.000Z,99820.83
2023-02-11T02:32:35.000Z,99821.52
2023-02-11T02:37:34.000Z,99818.03
2023-02-11T02:42:35.000Z,99817.35
2023-02-11T02:47:34.000Z,99817.73
2023-02-11T02:52:35.000Z,99818.27
2023-02-11T02:57:35.000Z,99829.73
2023-02-11T03:02:35.000Z,99826.44
2023-02-11T03:07:35.000Z,99825.14
2023-02-11T03:12:35.000Z,99820.48
2023-02-11T03:17:35.000Z,99816.4
2023-02-11T03:22:35.000Z,99815.16
2023-02-11T03:27:35.000Z,99811.55
2023-02-11T03:32:35.000Z,99811.55
2023-02-11T03:37:35.000Z,99810.64
2023-02-11T03:42:35.000Z,99805.37
2023-02-11T03:47:35.000Z,99801.93
2023-02-11T03:52:34.000Z,99796.83
2023-02-11T03:57:35.000Z,99795.43
2023-02-11T04:02:34.000Z,99796.75
2023-02-11T04:07:34.000Z,99798.19
2023-02-11T04:12:35.000Z,99799.28
2023-02-11T04:17:34.000Z,99792.52
2023-02-11T04:22:35.000Z,99794.04
2023-02-11T04:27:34.000Z,99791.61
2023-02-11T04:32:35.000Z,99790.1
2023-02-11T04:42:35.000Z,99791.09
2023-02-11T04:47:35.000Z,99794.15
2023-02-11T04:52:34.000Z,99791
2023-02-11T04:57:35.000Z,99793.66
2023-02-11T05:02:35.000Z,99795.99
2023-02-11T05:07:35.000Z,99800.34
2023-02-11T05:12:35.000Z,99798.46
2023-02-11T05:17:34.000Z,99799.05
2023-02-11T05:22:35.000Z,99809.75
2023-02-11T05:27:34.000Z,99806.26
2023-02-11T05:32:35.000Z,99806.26
2023-02-11T05:37:34.000Z,99803.02
2023-02-11T05:42:35.000Z,99800.36
2023-02-11T05:47:35.000Z,99800.69
2023-02-11T05:52:35.000Z,99803.75
2023-02-11T05:57:35.000Z,99808.72
2023-02-11T06:02:35.000Z,99805.21
2023-02-11T06:07:35.000Z,99809.09
2023-02-11T06:12:35.000Z,99814.92
2023-02-11T06:17:35.000Z,99807.85
2023-02-11T06:22:34.000Z,99815.63
2023-02-11T06:27:35.000Z,99811.8
2023-02-11T06:32:54.000Z,99800.81
2023-02-11T06:42:35.000Z,99807.22
2023-02-11T06:47:34.000Z,99804.18
2023-02-11T06:52:35.000Z,99801.61
2023-02-11T06:57:34.000Z,99804.89
2023-02-11T07:02:35.000Z,99809.63
2023-02-11T07:07:35.000Z,99809.13
2023-02-11T07:12:35.000Z,99810.15
2023-02-11T07:17:35.000Z,99813.18
2023-02-11T07:22:35.000Z,99813.18
2023-02-11T07:27:35.000Z,99818.04
2023-02-11T07:32:34.000Z,99818.97
2023-02-11T07:37:35.000Z,99814.47
2023-02-11T07:42:35.000Z,99808.95
2023-02-11T07:47:35.000Z,99795.11
2023-02-11T07:52:34.000Z,99787.2
2023-02-11T07:57:35.000Z,99784.55
2023-02-11T08:02:34.000Z,99783.96
2023-02-11T08:07:35.000Z,99773
2023-02-11T08:12:35.000Z,99768.14
2023-02-11T08:17:34.000Z,99769.69
2023-02-11T08:22:35.000Z,99760.39
2023-02-11T08:27:34.000Z,99752.79
2023-02-11T08:32:34.000Z,99755.43
2023-02-11T08:37:35.000Z,99755.43
2023-02-11T08:42:34.000Z,99744.13
2023-02-11T08:47:35.000Z,99749.44
2023-02-11T08:52:35.000Z,99743.54
2023-02-11T08:57:35.000Z,99734.95
2023-02-11T09:02:34.000Z,99716.97
2023-02-11T09:07:35.000Z,99706.67
2023-02-11T09:12:35.000Z,99694.23
2023-02-11T09:17:34.000Z,99684.44
2023-02-11T09:22:35.000Z,99675.68
2023-02-11T09:27:34.000Z,99656.2
2023-02-11T09:32:35.000Z,99633.25
2023-02-11T09:37:35.000Z,99632.08
2023-02-11T09:42:34.000Z,99624.73
2023-02-11T09:47:35.000Z,99614.19
2023-02-11T09:52:34.000Z,99614.19
2023-02-11T10:02:34.000Z,99603.17
2023-02-11T10:07:34.000Z,99595.92
2023-02-11T10:12:35.000Z,99591.96
2023-02-11T10:17:33.000Z,99597.05
2023-02-11T10:22:35.000Z,99594.15
2023-02-11T10:27:35.000Z,99586.32
2023-02-11T10:32:34.000Z,99577.17
2023-02-11T10:37:34.000Z,99577.17
2023-02-11T10:42:35.000Z,99569.7
2023-02-11T10:47:35.000Z,99563.93
2023-02-11T10:52:34.000Z,99559.87
2023-02-11T10:57:35.000Z,99548.49
2023-02-11T11:02:34.000Z,99534.27
2023-02-11T11:07:34.000Z,99517.65
2023-02-11T11:12:35.000Z,99508.49
2023-02-11T11:17:35.000Z,99498.85
2023-02-11T11:22:34.000Z,99489.72
2023-02-11T11:27:35.000Z,99476.91
2023-02-11T11:32:34.000Z,99467.04
2023-02-11T11:37:35.000Z,99454.5
2023-02-11T11:42:35.000Z,99439.91
2023-02-11T11:47:35.000Z,99421.46
2023-02-11T11:52:35.000Z,99421.46
2023-02-11T11:57:35.000Z,99402.41
2023-02-11T12:02:34.000Z,99388.11
2023-02-11T12:07:36.000Z,99369.88
2023-02-11T12:12:35.000Z,99360.5
2023-02-11T12:17:35.000Z,99357.01
2023-02-11T12:22:35.000Z,99339.98
2023-02-11T12:27:34.000Z,99329.26
2023-02-11T12:32:35.000Z,99316.57
2023-02-11T12:37:35.000Z,99312.06
2023-02-11T12:42:35.000Z,99303.83
2023-02-11T12:47:34.000Z,99310.62
2023-02-11T12:52:35.000Z,99314
2023-02-11T13:07:35.000Z,99298.68
2023-02-11T13:12:35.000Z,99289.41
2023-02-11T13:17:35.000Z,99282.36
2023-02-11T13:22:35.000Z,99269.86
2023-02-11T13:27:34.000Z,99255.8
2023-02-11T13:32:35.000Z,99243.96
2023-02-11T13:37:34.000Z,99232.77
2023-02-11T13:42:35.000Z,99223.73
2023-02-11T13:47:34.000Z,99209.55
2023-02-11T13:52:35.000Z,99194.25
2023-02-11T13:57:34.000Z,99180.18
2023-02-11T14:02:35.000Z,99167.79
2023-02-11T14:07:35.000Z,99155.2
2023-02-11T14:12:35.000Z,99142.22
2023-02-11T14:17:35.000Z,99142.22
2023-02-11T14:22:35.000Z,99129.66
2023-02-11T14:27:35.000Z,99120.79
2023-02-11T14:32:34.000Z,99107.28
2023-02-11T14:37:35.000Z,99090.56
2023-02-11T14:42:34.000Z,99084.48
2023-02-11T14:47:35.000Z,99066.55
2023-02-11T14:52:35.000Z,99050.75
2023-02-11T14:57:35.000Z,99047.34
2023-02-11T15:02:35.000Z,99038.17
2023-02-11T15:07:35.000Z,99016.7
2023-02-11T15:17:35.000Z,98998.42
2023-02-11T15:22:34.000Z,98976.48
2023-02-11T15:27:35.000Z,98972.66
2023-02-11T15:32:35.000Z,98963.71
2023-02-11T15:37:35.000Z,98963.71
2023-02-11T15:42:35.000Z,98955.2
2023-02-11T15:47:35.000Z,98941.42
2023-02-11T15:52:35.000Z,98933.59
2023-02-11T15:57:34.000Z,98926.96
2023-02-11T16:02:35.000Z,98918.93
2023-02-11T16:07:35.000Z,98909.76
2023-02-11T16:12:35.000Z,98902.81
2023-02-11T16:17:34.000Z,98896.44
2023-02-11T16:22:35.000Z,98882.6
2023-02-11T16:27:35.000Z,98884.44
2023-02-11T16:32:35.000Z,98871.47
2023-02-11T16:37:34.000Z,98865.48
2023-02-11T16:42:35.000Z,98858.3
2023-02-11T16:47:35.000Z,98858.3
2023-02-11T16:52:35.000Z,98849.58
2023-02-11T16:57:34.000Z,98840.58
2023-02-11T17:02:35.000Z,98827.53
2023-02-11T17:07:35.000Z,98814.67
2023-02-11T17:12:35.000Z,98805.34
2023-02-11T17:17:35.000Z,98797.76
2023-02-11T17:22:35.000Z,98787.59
2023-02-11T17:27:35.000Z,98769.64
2023-02-11T17:32:35.000Z,98759.4
2023-02-11T17:37:35.000Z,98746.86
2023-02-11T17:42:35.000Z,98739.39
2023-02-11T17:52:35.000Z,98727.98
2023-02-11T17:57:35.000Z,98719.81
2023-02-11T18:02:34.000Z,98701.98
2023-02-11T18:07:35.000Z,98686.19
2023-02-11T18:12:35.000Z,98673.55
2023-02-11T18:17:35.000Z,98666.86
2023-02-11T18:22:34.000Z,98655.79
2023-02-11T18:27:35.000Z,98655.79
2023-02-11T18:32:35.000Z,98647.68
2023-02-11T18:37:35.000Z,98637.5
2023-02-11T18:42:35.000Z,98623.42
2023-02-11T18:47:35.000Z,98616.17
2023-02-11T18:52:35.000Z,98609.23
2023-02-11T18:57:34.000Z,98600.79
2023-02-11T19:02:35.000Z,98590.01
2023-02-11T19:07:34.000Z,98584.5
2023-02-11T19:12:34.000Z,98576.5
2023-02-11T19:17:34.000Z,98573.57
2023-02-11T19:22:35.000Z,98565.63
2023-02-11T19:27:35.000Z,98557.34
2023-02-11T19:32:35.000Z,98546.1
2023-02-11T19:37:35.000Z,98539.75
2023-02-11T19:42:37.000Z,98539.75
2023-02-11T19:47:35.000Z,98529.29
2023-02-11T19:52:35.000Z,98523.54
2023-02-11T19:57:35.000Z,98517.69
2023-02-11T20:02:34.000Z,98509.28
2023-02-11T20:07:35.000Z,98502.26
2023-02-11T20:12:34.000Z,98502.66
2023-02-11T20:17:35.000Z,98494.04
2023-02-11T20:22:35.000Z,98493.89
2023-02-11T20:27:35.000Z,98476.14
2023-02-11T20:32:35.000Z,98465.48
2023-02-11T20:37:34.000Z,98459.82
2023-02-11T20:42:35.000Z,98450.68
2023-02-11T20:47:35.000Z,98451.06
2023-02-11T20:52:35.000Z,98442.55
2023-02-11T20:57:34.000Z,98442.55
2023-02-11T21:02:35.000Z,98438.51
2023-02-11T21:07:34.000Z,98436.02
2023-02-11T21:12:35.000Z,98430.54
2023-02-11T21:17:35.000Z,98430.64
2023-02-11T21:22:35.000Z,98422.83
2023-02-11T21:27:35.000Z,98421.46
2023-02-11T21:32:35.000Z,98416.7
2023-02-11T21:37:35.000Z,98412.92
2023-02-11T21:42:35.000Z,98411.7
2023-02-11T21:52:35.000Z,98405.18
2023-02-11T21:57:35.000Z,98399.86
2023-02-11T22:02:35.000Z,98393.84
2023-02-11T22:07:34.000Z,98391.5
2023-02-11T22:12:35.000Z,98387.77
2023-02-11T22:17:35.000Z,98385.82
2023-02-11T22:22:35.000Z,98386.37
2023-02-11T22:27:34.000Z,98386.37
2023-02-11T22:32:35.000Z,98385.88
2023-02-11T22:37:34.000Z,98381.78
2023-02-11T22:42:34.000Z,98378.47
2023-02-11T22:47:35.000Z,98377.36
2023-02-11T22:52:35.000Z,98374.15
2023-02-11T22:57:35.000Z,98368.22
2023-02-11T23:02:35.000Z,98370.33
2023-02-11T23:07:35.000Z,98376.28
2023-02-11T23:12:35.000Z,98379.45
2023-02-11T23:17:35.000Z,98369.72
2023-02-11T23:27:35.000Z,98377.4
2023-02-11T23:32:35.000Z,98379.33
2023-02-11T23:37:34.000Z,98379.97
2023-02-11T23:42:34.000Z,98382.55
2023-02-11T23:47:35.000Z,98384.86
2023-02-11T23:52:34.000Z,98380.6
2023-02-11T23:57:35.000Z,98382.49
